createdAt,value
2019-05-21T00:02:18.179Z,61.90
2019-05-21T00:05:05.249Z,62.15
2019-05-21T00:07:50.490Z,63.13
2019-05-21T00:10:35.302Z,62.08
2019-05-21T00:13:20.368Z,59.42
2019-05-21T00:16:05.139Z,62.05
2019-05-21T00:18:49.926Z,55.15
2019-05-21T00:21:34.787Z,61.33
2019-05-21T00:26:50.651Z,60.17
2019-05-21T00:30:14.345Z,56.37
2019-05-21T00:33:38.527Z,56.25
2019-05-21T00:37:01.030Z,57.78
2019-05-21T00:40:24.871Z,57.85
2019-05-21T00:43:10.186Z,59.95
2019-05-21T00:45:55.331Z,55.88
2019-05-21T00:48:40.222Z,53.95
2019-05-21T00:51:25.117Z,56.30
2019-05-21T00:54:09.913Z,53.58
2019-05-21T00:56:54.802Z,56.80
2019-05-21T00:59:39.624Z,48.25
2019-05-21T01:02:24.370Z,56.05
2019-05-21T01:05:09.245Z,57.13
2019-05-21T01:07:53.917Z,53.52
2019-05-21T01:10:38.731Z,59.70
2019-05-21T01:13:23.553Z,54.85
2019-05-21T01:16:08.346Z,54.65
2019-05-21T01:18:53.459Z,52.78
2019-05-21T01:21:38.357Z,49.55
2019-05-21T01:24:23.044Z,53.55
2019-05-21T01:27:07.763Z,52.00
2019-05-21T01:29:52.560Z,52.43
2019-05-21T01:32:38.359Z,52.35
2019-05-21T01:35:23.279Z,57.25
2019-05-21T01:38:08.367Z,50.95
2019-05-21T01:40:53.122Z,54.38
2019-05-21T01:43:38.068Z,56.75
2019-05-21T01:46:22.824Z,50.35
2019-05-21T01:49:07.584Z,51.73
2019-05-21T01:51:52.453Z,49.85
2019-05-21T01:54:37.169Z,44.30
2019-05-21T01:57:21.952Z,55.83
2019-05-21T02:00:06.821Z,50.15
2019-05-21T02:02:53.252Z,50.50
2019-05-21T02:05:37.860Z,50.08
2019-05-21T02:08:22.829Z,49.58
2019-05-21T02:11:07.753Z,48.52
2019-05-21T02:13:52.921Z,51.30
2019-05-21T02:16:37.946Z,49.13
2019-05-21T02:19:22.633Z,52.20
2019-05-21T02:22:07.480Z,49.33
2019-05-21T02:24:52.162Z,46.13
2019-05-21T02:27:37.148Z,43.35
2019-05-21T02:30:22.023Z,46.18
2019-05-21T02:33:06.888Z,45.03
2019-05-21T02:35:54.628Z,44.13
2019-05-21T02:38:38.503Z,46.33
2019-05-21T02:41:23.373Z,46.48
2019-05-21T02:44:08.025Z,45.03
2019-05-21T02:46:52.921Z,44.70
2019-05-21T02:49:37.854Z,47.30
2019-05-21T02:52:22.798Z,45.08
2019-05-21T02:55:07.926Z,47.60
2019-05-21T02:57:52.902Z,51.45
2019-05-21T03:00:45.490Z,44.95
2019-05-21T03:06:18.466Z,47.85
2019-05-21T03:09:04.954Z,46.02
2019-05-21T03:11:49.523Z,43.90
2019-05-21T03:14:34.382Z,44.90
2019-05-21T03:17:18.997Z,43.75
2019-05-21T03:20:07.420Z,47.75
2019-05-21T03:22:52.174Z,50.33
2019-05-21T03:25:37.548Z,48.08
2019-05-21T03:28:22.430Z,48.45
2019-05-21T03:31:07.057Z,44.75
2019-05-21T03:33:52.314Z,46.42
2019-05-21T03:36:37.358Z,45.95
2019-05-21T03:39:22.124Z,48.80
2019-05-21T03:42:07.325Z,52.75
2019-05-21T03:44:59.779Z,52.55
2019-05-21T03:47:39.233Z,48.45
2019-05-21T03:50:24.099Z,50.80
2019-05-21T03:53:08.791Z,46.60
2019-05-21T03:55:53.744Z,42.23
2019-05-21T03:58:38.592Z,43.28
2019-05-21T04:01:24.960Z,48.63
2019-05-21T04:04:09.756Z,53.80
2019-05-21T04:06:54.654Z,51.40
2019-05-21T04:09:39.732Z,46.35
2019-05-21T04:12:24.482Z,44.30
2019-05-21T04:15:14.108Z,44.38
2019-05-21T04:18:01.148Z,41.33
2019-05-21T04:20:59.418Z,43.13
2019-05-21T04:23:44.552Z,42.48
2019-05-21T04:26:29.747Z,43.30
2019-05-21T04:29:14.774Z,42.58
2019-05-21T04:31:59.595Z,43.70
2019-05-21T04:34:44.577Z,47.17
2019-05-21T04:37:30.322Z,40.52
2019-05-21T04:40:15.118Z,41.53
2019-05-21T04:43:02.195Z,41.80
2019-05-21T04:45:47.022Z,47.08
2019-05-21T04:48:31.788Z,45.15
2019-05-21T04:51:16.520Z,40.83
2019-05-21T04:54:01.563Z,37.50
2019-05-21T04:56:46.706Z,41.28
2019-05-21T04:59:31.414Z,41.92
2019-05-21T05:02:16.283Z,44.80
2019-05-21T05:05:04.066Z,41.40
2019-05-21T05:07:49.173Z,47.83
2019-05-21T05:10:34.105Z,44.45
2019-05-21T05:13:19.366Z,41.45
2019-05-21T05:16:04.515Z,44.18
2019-05-21T05:18:49.931Z,39.78
2019-05-21T05:21:34.885Z,39.95
2019-05-21T05:24:19.715Z,41.92
2019-05-21T05:27:04.921Z,42.65
2019-05-21T05:29:49.888Z,35.88
2019-05-21T05:32:34.785Z,36.88
2019-05-21T05:35:32.499Z,33.13
2019-05-21T05:38:17.517Z,30.70
2019-05-21T05:41:02.844Z,35.58
2019-05-21T05:43:47.734Z,40.80
2019-05-21T05:46:32.668Z,36.53
2019-05-21T05:49:22.329Z,39.18
2019-05-21T05:52:07.125Z,37.25
2019-05-21T05:54:51.909Z,35.05
2019-05-21T05:57:36.683Z,36.17
2019-05-21T06:00:22.162Z,36.05
2019-05-21T06:03:07.089Z,38.23
2019-05-21T06:05:52.499Z,35.85
2019-05-21T06:08:37.625Z,34.27
2019-05-21T06:11:22.444Z,38.15
2019-05-21T06:14:07.206Z,33.65
2019-05-21T06:16:51.821Z,34.43
2019-05-21T06:19:36.690Z,30.45
2019-05-21T06:22:21.410Z,32.85
2019-05-21T06:25:08.349Z,35.10
2019-05-21T06:27:53.225Z,29.80
2019-05-21T06:30:37.913Z,29.18
2019-05-21T06:33:22.666Z,27.80
2019-05-21T06:36:07.633Z,22.65
2019-05-21T06:38:52.224Z,27.30
2019-05-21T06:41:37.238Z,26.50
2019-05-21T06:44:22.447Z,29.90
2019-05-21T06:47:07.354Z,26.42
2019-05-21T06:49:53.201Z,27.70
2019-05-21T06:52:37.985Z,25.57
2019-05-21T06:55:22.821Z,26.40
2019-05-21T06:58:07.572Z,23.40
2019-05-21T07:00:52.467Z,28.32
2019-05-21T07:03:37.805Z,27.07
2019-05-21T07:06:22.656Z,20.88
2019-05-21T07:09:07.402Z,27.07
2019-05-21T07:11:52.225Z,21.93
2019-05-21T07:14:37.113Z,20.95
2019-05-21T07:17:22.069Z,22.55
2019-05-21T07:20:07.729Z,25.15
2019-05-21T07:22:52.609Z,20.72
2019-05-21T07:25:38.830Z,19.82
2019-05-21T07:28:23.860Z,20.25
2019-05-21T07:31:08.828Z,23.18
2019-05-21T07:33:53.620Z,23.02
2019-05-21T07:36:38.395Z,20.92
2019-05-21T07:39:23.137Z,23.60
2019-05-21T07:42:07.861Z,16.77
2019-05-21T07:44:52.677Z,24.63
2019-05-21T07:47:37.439Z,27.52
2019-05-21T07:50:22.221Z,23.00
2019-05-21T07:53:07.180Z,21.27
2019-05-21T07:55:51.995Z,24.90
2019-05-21T07:58:36.878Z,26.20
2019-05-21T08:01:21.766Z,25.82
2019-05-21T08:04:06.528Z,25.88
2019-05-21T08:06:51.861Z,22.77
2019-05-21T08:09:37.073Z,27.75
2019-05-21T08:12:37.438Z,23.45
2019-05-21T08:15:08.967Z,30.92
2019-05-21T08:17:54.088Z,25.80
2019-05-21T08:20:38.768Z,28.05
2019-05-21T08:23:23.595Z,27.32
2019-05-21T08:26:08.310Z,25.75
2019-05-21T08:28:53.278Z,28.30
2019-05-21T08:31:38.408Z,26.50
2019-05-21T08:34:23.212Z,25.35
2019-05-21T08:37:08.278Z,26.55
2019-05-21T08:39:53.138Z,24.77
2019-05-21T08:42:38.142Z,22.50
2019-05-21T08:45:22.885Z,23.42
2019-05-21T08:48:07.571Z,23.20
2019-05-21T08:50:52.417Z,26.80
2019-05-21T08:53:37.226Z,28.35
2019-05-21T08:56:21.985Z,26.07
2019-05-21T08:59:06.696Z,26.48
2019-05-21T09:01:51.713Z,28.62
2019-05-21T09:04:46.305Z,19.70
2019-05-21T09:07:24.317Z,27.65
2019-05-21T09:10:10.050Z,26.90
2019-05-21T09:12:55.237Z,26.25
2019-05-21T09:15:40.285Z,24.87
2019-05-21T09:18:25.613Z,23.87
2019-05-21T09:21:10.861Z,21.23
2019-05-21T09:23:55.578Z,19.82
2019-05-21T09:26:40.420Z,24.18
2019-05-21T09:29:25.162Z,22.10
2019-05-21T09:32:10.032Z,20.60
2019-05-21T09:34:55.287Z,22.35
2019-05-21T09:37:40.285Z,22.07
2019-05-21T09:40:25.850Z,20.10
2019-05-21T09:43:10.761Z,21.37
2019-05-21T09:45:55.669Z,16.95
2019-05-21T09:48:40.357Z,19.50
2019-05-21T09:51:25.464Z,17.98
2019-05-21T09:54:11.429Z,19.67
2019-05-21T09:56:56.326Z,22.52
2019-05-21T09:59:49.551Z,26.33
2019-05-21T10:02:35.376Z,23.10
2019-05-21T10:05:20.147Z,16.60
2019-05-21T10:08:04.978Z,17.70
2019-05-21T10:10:49.801Z,17.73
2019-05-21T10:13:34.816Z,22.25
2019-05-21T10:16:19.869Z,19.85
2019-05-21T10:19:05.163Z,25.00
2019-05-21T10:21:50.114Z,20.40
2019-05-21T10:24:35.271Z,16.25
2019-05-21T10:27:20.038Z,18.52
2019-05-21T10:30:06.193Z,12.90
2019-05-21T10:32:51.284Z,12.85
2019-05-21T10:35:36.519Z,17.77
2019-05-21T10:38:21.319Z,14.38
2019-05-21T10:41:06.283Z,13.75
2019-05-21T10:43:51.013Z,18.07
2019-05-21T10:46:35.990Z,17.42
2019-05-21T10:49:40.627Z,17.45
2019-05-21T10:52:25.631Z,16.55
2019-05-21T10:55:16.487Z,18.70
2019-05-21T10:58:01.536Z,17.70
2019-05-21T11:00:47.784Z,19.27
2019-05-21T11:03:40.485Z,16.80
2019-05-21T11:06:25.808Z,16.30
2019-05-21T11:09:17.940Z,17.48
2019-05-21T11:12:02.993Z,18.80
2019-05-21T11:14:48.103Z,18.42
2019-05-21T11:17:48.306Z,18.92
2019-05-21T11:20:20.668Z,15.55
2019-05-21T11:23:05.723Z,20.62
2019-05-21T11:25:50.511Z,16.15
2019-05-21T11:28:35.355Z,13.08
2019-05-21T11:31:20.521Z,15.93
2019-05-21T11:34:05.819Z,17.40
2019-05-21T11:36:51.345Z,16.70
2019-05-21T11:39:36.400Z,16.80
2019-05-21T11:42:21.180Z,20.15
2019-05-21T11:45:06.311Z,18.55
2019-05-21T11:47:54.455Z,23.38
2019-05-21T11:50:38.599Z,22.67
2019-05-21T11:53:23.309Z,17.52
2019-05-21T11:56:08.026Z,19.50
2019-05-21T11:58:52.960Z,22.48
2019-05-21T12:01:39.235Z,17.73
2019-05-21T12:04:25.052Z,20.12
2019-05-21T12:07:09.971Z,17.67
2019-05-21T12:09:55.240Z,18.35
2019-05-21T12:12:39.986Z,20.55
2019-05-21T12:15:24.751Z,16.07
2019-05-21T12:18:09.533Z,17.55
2019-05-21T12:20:54.204Z,23.15
2019-05-21T12:23:39.509Z,19.82
2019-05-21T12:26:24.562Z,17.50
2019-05-21T12:29:11.044Z,20.65
2019-05-21T12:31:55.907Z,17.20
2019-05-21T12:34:41.162Z,20.35
2019-05-21T12:37:26.091Z,17.65
2019-05-21T12:40:11.822Z,16.40
2019-05-21T12:42:56.634Z,19.75
2019-05-21T12:45:41.480Z,15.72
2019-05-21T12:48:26.650Z,17.23
2019-05-21T12:51:11.957Z,18.15
2019-05-21T12:53:57.455Z,16.57
2019-05-21T12:56:42.607Z,17.73
2019-05-21T12:59:27.382Z,15.88
2019-05-21T13:02:12.212Z,18.57
2019-05-21T13:04:56.943Z,20.70
2019-05-21T13:07:41.921Z,20.68
2019-05-21T13:10:27.210Z,18.12
2019-05-21T13:13:12.344Z,20.23
2019-05-21T13:15:57.275Z,17.32
2019-05-21T13:18:42.719Z,15.05
2019-05-21T13:21:27.918Z,17.73
2019-05-21T13:24:12.742Z,15.68
2019-05-21T13:26:57.594Z,19.80
2019-05-21T13:29:42.542Z,19.07
2019-05-21T13:32:28.021Z,18.50
2019-05-21T13:35:13.539Z,20.48
2019-05-21T13:37:58.773Z,17.73
2019-05-21T13:40:44.067Z,17.37
2019-05-21T13:43:29.200Z,16.70
2019-05-21T13:46:14.097Z,17.27
2019-05-21T13:48:59.318Z,18.17
2019-05-21T13:51:44.310Z,18.23
2019-05-21T13:54:29.123Z,18.05
2019-05-21T13:57:13.961Z,14.98
2019-05-21T13:59:58.680Z,15.15
2019-05-21T14:02:43.506Z,14.35
2019-05-21T14:05:28.968Z,12.47
2019-05-21T14:08:14.146Z,14.28
2019-05-21T14:10:59.594Z,13.03
2019-05-21T14:13:44.228Z,12.43
2019-05-21T14:16:29.101Z,11.75
2019-05-21T14:19:13.913Z,12.10
2019-05-21T14:21:58.645Z,14.83
2019-05-21T14:24:43.428Z,14.05
2019-05-21T14:27:43.216Z,14.33
2019-05-21T14:30:15.621Z,14.75
2019-05-21T14:33:01.635Z,15.23
2019-05-21T14:35:47.057Z,15.55
2019-05-21T14:38:32.146Z,15.23
2019-05-21T14:41:17.034Z,17.60
2019-05-21T14:44:02.368Z,20.88
2019-05-21T14:46:47.598Z,17.10
2019-05-21T14:49:32.407Z,18.42
2019-05-21T14:52:17.454Z,17.80
2019-05-21T14:55:04.740Z,18.55
2019-05-21T14:57:49.769Z,18.12
2019-05-21T15:00:36.478Z,16.42
2019-05-21T15:03:25.260Z,18.02
2019-05-21T15:06:08.406Z,15.98
2019-05-21T15:08:55.040Z,17.17
2019-05-21T15:11:39.967Z,16.27
2019-05-21T15:14:24.807Z,20.62
2019-05-21T15:17:09.713Z,18.32
2019-05-21T15:19:56.791Z,13.48
2019-05-21T15:22:41.793Z,15.03
2019-05-21T15:25:27.303Z,11.75
2019-05-21T15:28:12.547Z,15.15
2019-05-21T15:30:57.592Z,12.37
2019-05-21T15:33:42.415Z,16.15
2019-05-21T15:36:27.410Z,14.93
2019-05-21T15:39:13.767Z,19.77
2019-05-21T15:41:58.771Z,15.60
2019-05-21T15:44:43.812Z,17.48
2019-05-21T15:47:28.577Z,18.40
2019-05-21T15:50:13.821Z,17.27
2019-05-21T15:52:58.664Z,16.17
2019-05-21T15:55:43.404Z,15.83
2019-05-21T15:58:28.218Z,16.67
2019-05-21T16:01:13.447Z,17.65
2019-05-21T16:03:58.524Z,17.07
2019-05-21T16:06:43.670Z,16.97
2019-05-21T16:09:28.703Z,18.35
2019-05-21T16:12:13.563Z,15.63
2019-05-21T16:14:58.575Z,18.87
2019-05-21T16:17:43.486Z,17.67
2019-05-21T16:20:28.326Z,18.65
2019-05-21T16:23:13.210Z,15.80
2019-05-21T16:25:58.044Z,13.70
2019-05-21T16:28:43.532Z,16.55
2019-05-21T16:31:28.454Z,13.40
2019-05-21T16:34:13.677Z,13.35
2019-05-21T16:36:59.881Z,15.15
2019-05-21T16:39:45.018Z,15.78
2019-05-21T16:42:29.725Z,11.50
2019-05-21T16:45:16.741Z,10.25
2019-05-21T16:48:01.911Z,11.80
2019-05-21T16:50:46.857Z,12.00
2019-05-21T16:53:33.037Z,10.35
2019-05-21T16:56:17.654Z,13.88
2019-05-21T17:01:37.447Z,11.43
2019-05-21T17:04:22.246Z,9.73
2019-05-21T17:07:07.212Z,9.18
2019-05-21T17:09:52.519Z,11.18
2019-05-21T17:12:37.690Z,10.88
2019-05-21T17:15:22.378Z,10.32
2019-05-21T17:18:07.130Z,10.95
2019-05-21T17:20:52.540Z,12.23
2019-05-21T17:23:37.349Z,11.28
2019-05-21T17:26:22.349Z,10.30
2019-05-21T17:29:07.231Z,12.33
2019-05-21T17:31:52.080Z,11.65
2019-05-21T17:34:36.878Z,11.05
2019-05-21T17:37:21.822Z,10.90
2019-05-21T17:40:07.345Z,15.75
2019-05-21T17:42:53.684Z,9.98
2019-05-21T17:45:38.747Z,11.45
2019-05-21T17:48:23.447Z,14.70
2019-05-21T17:51:09.203Z,13.22
2019-05-21T17:53:54.492Z,11.55
2019-05-21T17:56:39.678Z,12.73
2019-05-21T17:59:24.913Z,11.50
2019-05-21T18:02:12.183Z,13.35
2019-05-21T18:04:57.610Z,11.97
2019-05-21T18:07:43.419Z,14.30
2019-05-21T18:10:28.677Z,15.35
2019-05-21T18:13:15.756Z,13.40
2019-05-21T18:16:00.739Z,16.48
2019-05-21T18:18:45.738Z,14.90
2019-05-21T18:21:31.533Z,15.88
2019-05-21T18:24:17.002Z,18.87
2019-05-21T18:27:02.437Z,16.77
2019-05-21T18:29:49.660Z,17.70
2019-05-21T18:32:34.881Z,18.57
2019-05-21T18:35:20.251Z,20.02
2019-05-21T18:38:05.473Z,19.37
2019-05-21T18:40:50.991Z,20.17
2019-05-21T18:43:36.374Z,20.92
2019-05-21T18:46:21.484Z,20.55
2019-05-21T18:49:06.863Z,21.07
2019-05-21T18:51:52.278Z,19.98
2019-05-21T18:54:37.449Z,24.15
2019-05-21T18:57:22.622Z,24.30
2019-05-21T19:00:10.380Z,23.92
2019-05-21T19:02:57.080Z,25.35
2019-05-21T19:05:43.533Z,34.45
2019-05-21T19:08:41.622Z,23.30
2019-05-21T19:11:26.765Z,20.85
2019-05-21T19:14:12.319Z,25.25
2019-05-21T19:16:57.281Z,25.55
2019-05-21T19:19:42.093Z,27.67
2019-05-21T19:22:27.756Z,24.92
2019-05-21T19:25:13.567Z,26.87
2019-05-21T19:27:58.639Z,29.85
2019-05-21T19:30:43.979Z,27.35
2019-05-21T19:33:29.286Z,32.13
2019-05-21T19:36:14.395Z,27.13
2019-05-21T19:38:59.390Z,27.87
2019-05-21T19:41:44.206Z,31.12
2019-05-21T19:44:29.535Z,28.23
2019-05-21T19:47:15.056Z,29.72
2019-05-21T19:49:59.940Z,25.57
2019-05-21T19:52:45.244Z,24.87
2019-05-21T19:55:31.407Z,29.65
2019-05-21T19:58:16.992Z,26.00
2019-05-21T20:01:04.131Z,28.38
2019-05-21T20:03:49.517Z,32.38
2019-05-21T20:06:34.392Z,27.55
2019-05-21T20:09:21.146Z,28.57
2019-05-21T20:12:09.078Z,28.17
2019-05-21T20:14:53.871Z,30.23
2019-05-21T20:17:40.372Z,30.27
2019-05-21T20:20:26.168Z,29.85
2019-05-21T20:23:12.551Z,30.68
2019-05-21T20:25:58.793Z,29.02
2019-05-21T20:28:44.307Z,29.00
2019-05-21T20:31:30.202Z,30.57
2019-05-21T20:34:15.711Z,27.85
2019-05-21T20:37:01.376Z,31.60
2019-05-21T20:39:48.194Z,29.32
2019-05-21T20:42:33.783Z,28.98
2019-05-21T20:45:20.172Z,33.80
2019-05-21T20:48:06.446Z,32.45
2019-05-21T20:50:51.336Z,32.83
2019-05-21T20:53:36.678Z,32.67
2019-05-21T20:56:21.744Z,32.63
2019-05-21T20:59:06.927Z,33.80
2019-05-21T21:01:52.674Z,39.13
2019-05-21T21:04:38.032Z,36.05
2019-05-21T21:07:22.846Z,33.28
2019-05-21T21:10:11.435Z,35.17
2019-05-21T21:12:58.297Z,35.85
2019-05-21T21:15:43.913Z,37.93
2019-05-21T21:18:29.019Z,29.92
2019-05-21T21:21:14.177Z,32.03
2019-05-21T21:23:59.757Z,31.50
2019-05-21T21:26:44.758Z,29.07
2019-05-21T21:29:29.583Z,32.05
2019-05-21T21:32:14.492Z,31.02
2019-05-21T21:34:59.370Z,31.85
2019-05-21T21:37:45.001Z,30.60
2019-05-21T21:40:29.971Z,33.23
2019-05-21T21:43:14.689Z,33.08
2019-05-21T21:45:59.889Z,30.30
2019-05-21T21:48:45.798Z,31.95
2019-05-21T21:51:30.954Z,31.65
2019-05-21T21:54:16.054Z,35.98
2019-05-21T21:57:01.006Z,33.05
2019-05-21T21:59:45.901Z,37.23
2019-05-21T22:02:31.929Z,39.83
2019-05-21T22:05:19.724Z,36.83
2019-05-21T22:08:05.185Z,34.43
2019-05-21T22:10:50.306Z,38.60
2019-05-21T22:13:35.475Z,39.08
2019-05-21T22:16:21.446Z,38.80
2019-05-21T22:19:08.222Z,38.63
2019-05-21T22:21:53.154Z,38.13
2019-05-21T22:24:38.605Z,38.80
2019-05-21T22:27:25.482Z,40.67
2019-05-21T22:30:14.025Z,43.20
2019-05-21T22:32:58.847Z,42.00
2019-05-21T22:35:43.922Z,44.58
2019-05-21T22:38:28.638Z,43.90
2019-05-21T22:41:13.497Z,44.45
2019-05-21T22:43:58.298Z,44.73
2019-05-21T22:46:43.767Z,41.80
2019-05-21T22:49:33.592Z,45.23
2019-05-21T22:52:15.165Z,44.13
2019-05-21T22:55:02.595Z,47.85
2019-05-21T22:57:47.379Z,47.43
2019-05-21T23:00:32.969Z,45.70
2019-05-21T23:03:18.086Z,48.85
2019-05-21T23:06:03.110Z,45.23
2019-05-21T23:08:48.713Z,52.83
2019-05-21T23:11:34.119Z,46.37
2019-05-21T23:14:19.185Z,46.85
2019-05-21T23:17:07.012Z,44.33
2019-05-21T23:20:12.725Z,49.80
2019-05-21T23:23:00.008Z,46.10
2019-05-21T23:25:45.617Z,43.95
2019-05-21T23:28:31.745Z,47.55
2019-05-21T23:31:18.345Z,47.93
2019-05-21T23:34:04.647Z,52.60
2019-05-21T23:36:50.894Z,47.03
2019-05-21T23:39:35.954Z,52.03
2019-05-21T23:42:29.359Z,48.20
2019-05-21T23:45:10.745Z,45.08
2019-05-21T23:47:55.390Z,49.27
2019-05-21T23:50:40.282Z,50.73
2019-05-21T23:53:25.161Z,50.00
2019-05-21T23:56:10.055Z,48.85
2019-05-21T23:58:54.814Z,43.50
